Time;durP1;ratioP1;P1;durP2;ratioP2;P2;SDS_P1;SDS_P2;PMS_P1;PMS_P2;Temp;Humidity;BMP_temperature;BMP_pressure;BME280_temperature;BME280_humidity;BME280_pressure;Samples;Min_cycle;Max_cycle;Signal;HPM_P1;HPM_P2
2022/04/27 00:00:43;;;;;;;12.45;5.43;;;;;;;;;;5018229;28;89463;-71
2022/04/27 00:03:10;;;;;;;14.15;5.95;;;;;;;;;;5020622;28;89844;-71
2022/04/27 00:05:36;;;;;;;7.38;5.18;;;;;;;;;;5018531;28;88296;-71
2022/04/27 00:08:02;;;;;;;8.38;5.45;;;;;;;;;;5026556;27;88525;-71
2022/04/27 00:10:29;;;;;;;11.27;4.93;;;;;;;;;;5024944;27;88794;-71
2022/04/27 00:12:55;;;;;;;10.00;5.60;;;;;;;;;;5018247;28;88979;-71
2022/04/27 00:15:23;;;;;;;5.93;4.72;;;;;;;;;;5009920;28;88630;-71
2022/04/27 00:17:49;;;;;;;11.75;5.47;;;;;;;;;;5016490;28;89054;-71
2022/04/27 00:20:16;;;;;;;9.75;5.15;;;;;;;;;;5016117;28;88534;-71
2022/04/27 00:22:42;;;;;;;8.35;5.20;;;;;;;;;;5016015;28;88958;-71
2022/04/27 00:25:09;;;;;;;7.78;5.38;;;;;;;;;;5015713;28;88890;-71
2022/04/27 00:27:35;;;;;;;8.63;5.57;;;;;;;;;;5015862;28;89843;-71
2022/04/27 00:30:01;;;;;;;7.30;5.15;;;;;;;;;;5002384;28;90320;-71
2022/04/27 00:32:28;;;;;;;8.38;5.10;;;;;;;;;;5018280;28;87557;-72
2022/04/27 00:34:54;;;;;;;24.15;4.88;;;;;;;;;;5014735;28;89006;-71
2022/04/27 00:37:20;;;;;;;10.90;5.07;;;;;;;;;;5017514;28;89963;-71
2022/04/27 00:39:47;;;;;;;7.68;4.82;;;;;;;;;;5011738;28;88756;-71
2022/04/27 00:42:13;;;;;;;8.68;5.43;;;;;;;;;;5003350;28;91088;-71
2022/04/27 00:44:43;;;;;;;9.20;4.53;;;;;;;;;;5017724;28;89132;-71
2022/04/27 00:47:10;;;;;;;12.20;4.70;;;;;;;;;;5014039;28;88156;-71
2022/04/27 00:49:40;;;;;;;11.93;5.30;;;;;;;;;;5011380;28;88561;-70
2022/04/27 00:52:07;;;;;;;8.05;4.45;;;;;;;;;;5024646;28;88429;-71
2022/04/27 00:54:33;;;;;;;9.07;5.05;;;;;;;;;;5010746;27;89481;-71
2022/04/27 00:57:01;;;;;;;11.18;5.20;;;;;;;;;;5038530;27;88844;-71
2022/04/27 00:59:27;;;;;;;10.05;4.93;;;;;;;;;;5013936;28;88043;-71
2022/04/27 01:01:53;;;;;;;11.15;4.93;;;;;;;;;;5011123;28;88601;-71
2022/04/27 01:04:20;;;;;;;6.22;4.50;;;;;;;;;;5015652;28;90645;-71
2022/04/27 01:06:46;;;;;;;4.97;4.40;;;;;;;;;;5017901;28;88088;-71
2022/04/27 01:09:13;;;;;;;8.90;4.40;;;;;;;;;;5020946;28;88600;-71
2022/04/27 01:11:39;;;;;;;6.72;4.70;;;;;;;;;;5017469;28;88051;-71
2022/04/27 01:14:06;;;;;;;10.95;5.95;;;;;;;;;;5013693;28;88679;-71
2022/04/27 01:16:32;;;;;;;5.25;4.35;;;;;;;;;;5015127;28;90177;-71
2022/04/27 01:18:59;;;;;;;10.32;4.95;;;;;;;;;;5009467;28;88315;-71
2022/04/27 01:21:26;;;;;;;7.53;4.75;;;;;;;;;;5018498;28;89286;-71
2022/04/27 01:23:53;;;;;;;11.15;4.80;;;;;;;;;;5033936;28;90350;-71
2022/04/27 01:26:20;;;;;;;10.18;5.28;;;;;;;;;;5000899;28;89124;-71
2022/04/27 01:28:46;;;;;;;7.75;4.90;;;;;;;;;;5014969;28;89036;-71
2022/04/27 01:31:12;;;;;;;9.32;4.55;;;;;;;;;;5017197;28;88102;-71
2022/04/27 01:33:39;;;;;;;9.55;4.82;;;;;;;;;;5018229;28;89107;-71
2022/04/27 01:36:06;;;;;;;5.78;4.30;;;;;;;;;;5016153;28;89071;-70
2022/04/27 01:38:37;;;;;;;7.60;4.25;;;;;;;;;;5009329;28;89750;-71
2022/04/27 01:41:04;;;;;;;10.63;5.20;;;;;;;;;;5018116;28;88796;-71
2022/04/27 01:43:30;;;;;;;9.73;5.97;;;;;;;;;;5010768;28;89838;-71
2022/04/27 01:45:56;;;;;;;9.40;4.93;;;;;;;;;;5007008;28;87764;-71
2022/04/27 01:48:22;;;;;;;7.53;4.63;;;;;;;;;;5012060;27;88112;-71
2022/04/27 01:50:49;;;;;;;7.53;4.40;;;;;;;;;;5037592;28;89294;-71
2022/04/27 01:56:00;;;;;;;8.13;4.90;;;;;;;;;;5029387;28;89165;-71
2022/04/27 01:58:27;;;;;;;7.28;4.80;;;;;;;;;;5023936;27;88247;-72
2022/04/27 02:00:53;;;;;;;7.85;5.05;;;;;;;;;;5018236;28;88331;-71
2022/04/27 02:03:21;;;;;;;8.18;4.63;;;;;;;;;;5012014;27;88853;-71
2022/04/27 02:05:48;;;;;;;6.70;4.53;;;;;;;;;;5016639;28;88118;-71
2022/04/27 02:08:15;;;;;;;12.93;4.72;;;;;;;;;;5015167;28;89584;-71
2022/04/27 02:10:41;;;;;;;15.35;5.25;;;;;;;;;;5014593;28;88297;-71
2022/04/27 02:13:08;;;;;;;8.18;4.78;;;;;;;;;;5019145;28;88133;-71
2022/04/27 02:15:35;;;;;;;8.82;5.25;;;;;;;;;;5011280;28;90335;-71
2022/04/27 02:18:01;;;;;;;7.50;4.82;;;;;;;;;;5013240;28;89028;-71
2022/04/27 02:20:28;;;;;;;11.43;5.05;;;;;;;;;;5006327;28;90664;-71
2022/04/27 02:22:54;;;;;;;10.70;5.10;;;;;;;;;;5015909;28;89758;-71
2022/04/27 02:25:22;;;;;;;9.88;5.00;;;;;;;;;;5015664;28;87960;-71
2022/04/27 02:27:49;;;;;;;13.07;4.55;;;;;;;;;;5012994;28;88529;-71
2022/04/27 02:30:16;;;;;;;8.00;5.10;;;;;;;;;;5013899;28;89656;-71
2022/04/27 02:32:43;;;;;;;10.23;5.03;;;;;;;;;;5020955;27;88721;-71
2022/04/27 02:35:09;;;;;;;9.30;4.30;;;;;;;;;;5017349;28;88909;-71
2022/04/27 02:37:36;;;;;;;8.55;4.70;;;;;;;;;;5013520;28;88774;-71
2022/04/27 02:40:03;;;;;;;11.35;5.13;;;;;;;;;;5007200;28;88724;-71
2022/04/27 02:42:32;;;;;;;6.13;4.57;;;;;;;;;;5016135;28;89222;-71
2022/04/27 02:44:58;;;;;;;9.52;5.20;;;;;;;;;;5016602;28;88392;-71
2022/04/27 02:47:25;;;;;;;6.65;4.47;;;;;;;;;;5013467;28;90522;-71
2022/04/27 02:52:36;;;;;;;8.20;5.03;;;;;;;;;;5020992;28;88076;-71
2022/04/27 02:55:02;;;;;;;5.10;4.55;;;;;;;;;;5022081;28;88889;-71
2022/04/27 02:57:29;;;;;;;6.28;4.47;;;;;;;;;;5017353;27;89104;-71
2022/04/27 02:59:55;;;;;;;7.95;5.07;;;;;;;;;;5016007;28;90082;-71
2022/04/27 03:02:21;;;;;;;7.88;4.65;;;;;;;;;;5015880;28;88776;-71
2022/04/27 03:04:48;;;;;;;7.35;5.03;;;;;;;;;;5016279;28;88113;-71
2022/04/27 03:07:14;;;;;;;6.75;4.80;;;;;;;;;;5025024;27;88666;-71
2022/04/27 03:09:40;;;;;;;8.40;4.00;;;;;;;;;;5016605;28;88899;-71
2022/04/27 03:12:07;;;;;;;8.00;4.78;;;;;;;;;;5014203;28;88163;-71
2022/04/27 03:14:34;;;;;;;6.75;4.50;;;;;;;;;;5016081;28;90013;-71
2022/04/27 03:17:01;;;;;;;6.35;4.00;;;;;;;;;;5015654;28;88698;-70
2022/04/27 03:19:27;;;;;;;6.03;4.50;;;;;;;;;;5009159;28;87975;-71
2022/04/27 03:21:53;;;;;;;12.82;5.05;;;;;;;;;;5020584;27;88958;-71
2022/04/27 03:24:19;;;;;;;7.57;4.60;;;;;;;;;;5014294;28;89085;-73
2022/04/27 03:26:47;;;;;;;6.20;4.75;;;;;;;;;;5016018;28;88216;-71
2022/04/27 03:29:15;;;;;;;11.00;5.00;;;;;;;;;;5015359;28;89906;-71
2022/04/27 03:31:42;;;;;;;11.90;5.22;;;;;;;;;;5014422;28;88763;-71
2022/04/27 03:34:08;;;;;;;9.85;5.00;;;;;;;;;;5014601;28;89749;-71
2022/04/27 03:36:35;;;;;;;11.88;4.35;;;;;;;;;;5015278;28;88239;-70
2022/04/27 03:39:01;;;;;;;7.85;4.28;;;;;;;;;;5011109;28;89010;-70
2022/04/27 03:41:28;;;;;;;12.18;4.20;;;;;;;;;;5009450;28;89488;-70
2022/04/27 03:43:55;;;;;;;4.65;3.70;;;;;;;;;;5017906;28;88026;-70
2022/04/27 03:46:21;;;;;;;10.30;4.78;;;;;;;;;;5015151;28;88730;-71
2022/04/27 03:49:07;;;;;;;6.25;4.32;;;;;;;;;;5005599;28;89912;-71
2022/04/27 03:51:34;;;;;;;6.80;4.47;;;;;;;;;;5009243;28;87963;-71
2022/04/27 03:54:00;;;;;;;8.35;4.38;;;;;;;;;;5006069;28;88558;-71
2022/04/27 03:56:26;;;;;;;12.35;4.55;;;;;;;;;;5036758;28;89460;-71
2022/04/27 03:58:53;;;;;;;12.10;4.63;;;;;;;;;;5012717;27;88087;-70
2022/04/27 04:01:19;;;;;;;10.38;4.32;;;;;;;;;;5019596;28;88650;-71
2022/04/27 04:03:45;;;;;;;8.02;4.50;;;;;;;;;;5018266;28;88224;-71
2022/04/27 04:06:12;;;;;;;6.30;4.30;;;;;;;;;;5016510;28;88656;-71
2022/04/27 04:08:38;;;;;;;6.95;4.30;;;;;;;;;;5004289;28;89112;-71
2022/04/27 04:11:05;;;;;;;8.68;4.30;;;;;;;;;;5006301;28;89355;-71
2022/04/27 04:13:31;;;;;;;5.35;4.22;;;;;;;;;;5013601;28;88861;-71
2022/04/27 04:16:00;;;;;;;8.52;4.22;;;;;;;;;;5024128;28;89098;-71
2022/04/27 04:18:26;;;;;;;7.05;4.72;;;;;;;;;;5019747;28;88061;-71
2022/04/27 04:20:52;;;;;;;8.07;4.18;;;;;;;;;;5017854;28;88769;-70
2022/04/27 04:23:19;;;;;;;4.68;3.88;;;;;;;;;;5021904;28;88810;-70
2022/04/27 04:28:30;;;;;;;6.25;4.57;;;;;;;;;;5018808;28;88851;-70
2022/04/27 04:31:14;;;;;;;9.50;4.85;;;;;;;;;;5018659;28;88616;-71
2022/04/27 04:33:40;;;;;;;8.60;4.75;;;;;;;;;;5015277;28;88819;-70
2022/04/27 04:36:08;;;;;;;7.75;4.55;;;;;;;;;;5008705;28;89383;-70
2022/04/27 04:38:35;;;;;;;6.00;4.70;;;;;;;;;;5017794;28;89014;-70
2022/04/27 04:41:01;;;;;;;6.53;4.78;;;;;;;;;;5014536;28;88039;-70
2022/04/27 04:43:29;;;;;;;4.95;4.13;;;;;;;;;;5009756;28;90124;-69
2022/04/27 04:45:55;;;;;;;7.82;5.57;;;;;;;;;;5029806;27;88909;-70
2022/04/27 04:48:22;;;;;;;9.25;4.38;;;;;;;;;;5006135;28;89031;-70
2022/04/27 04:50:48;;;;;;;9.48;4.45;;;;;;;;;;5013064;28;88971;-70
2022/04/27 04:53:14;;;;;;;5.30;3.90;;;;;;;;;;5015870;28;89399;-70
2022/04/27 04:55:41;;;;;;;7.22;4.53;;;;;;;;;;5024554;28;88994;-70
2022/04/27 04:58:09;;;;;;;8.35;5.00;;;;;;;;;;5017014;28;88077;-70
2022/04/27 05:00:37;;;;;;;7.78;4.88;;;;;;;;;;5006721;28;88575;-70
2022/04/27 05:03:03;;;;;;;6.80;4.22;;;;;;;;;;5011753;28;88284;-70
2022/04/27 05:05:29;;;;;;;6.82;5.40;;;;;;;;;;5015685;28;89011;-71
2022/04/27 05:07:56;;;;;;;7.30;4.40;;;;;;;;;;5019765;28;88441;-70
2022/04/27 05:10:22;;;;;;;10.45;4.60;;;;;;;;;;5011620;28;90298;-71
2022/04/27 05:12:48;;;;;;;6.05;4.45;;;;;;;;;;5018617;28;89332;-71
2022/04/27 05:15:15;;;;;;;5.53;4.90;;;;;;;;;;5017395;28;88844;-71
2022/04/27 05:17:41;;;;;;;9.55;4.78;;;;;;;;;;5016558;28;88067;-71
2022/04/27 05:20:08;;;;;;;8.25;4.93;;;;;;;;;;5015983;28;88039;-71
2022/04/27 05:22:35;;;;;;;5.78;4.35;;;;;;;;;;5018338;28;89554;-71
2022/04/27 05:25:02;;;;;;;7.50;4.75;;;;;;;;;;5013777;28;88479;-72
2022/04/27 05:27:29;;;;;;;7.25;4.78;;;;;;;;;;5018580;28;88904;-72
2022/04/27 05:32:41;;;;;;;8.82;5.28;;;;;;;;;;5008418;28;88629;-71
2022/04/27 05:35:07;;;;;;;11.23;5.38;;;;;;;;;;5002677;28;89761;-72
2022/04/27 05:37:33;;;;;;;6.45;5.40;;;;;;;;;;5016597;28;87903;-72
2022/04/27 05:39:59;;;;;;;5.78;5.15;;;;;;;;;;5013335;28;89604;-72
2022/04/27 05:42:26;;;;;;;6.45;5.15;;;;;;;;;;5017367;28;91607;-72
2022/04/27 05:44:52;;;;;;;8.55;5.28;;;;;;;;;;5031243;27;88308;-71
2022/04/27 05:47:19;;;;;;;8.50;5.63;;;;;;;;;;5016930;28;89931;-71
2022/04/27 05:49:45;;;;;;;6.13;5.15;;;;;;;;;;5021064;28;89804;-70
2022/04/27 05:52:11;;;;;;;6.47;4.95;;;;;;;;;;5018046;28;90132;-72
2022/04/27 05:54:38;;;;;;;7.63;5.32;;;;;;;;;;5013804;28;89727;-71
2022/04/27 05:57:04;;;;;;;8.10;5.50;;;;;;;;;;5023506;27;88073;-71
2022/04/27 05:59:30;;;;;;;9.32;6.32;;;;;;;;;;5017305;28;89167;-72
2022/04/27 06:01:57;;;;;;;7.32;5.45;;;;;;;;;;5014058;28;88169;-71
2022/04/27 06:04:25;;;;;;;8.00;4.88;;;;;;;;;;5009086;28;87964;-71
2022/04/27 06:06:51;;;;;;;7.38;5.57;;;;;;;;;;4997220;28;89845;-72
2022/04/27 06:09:17;;;;;;;8.45;6.00;;;;;;;;;;5008187;28;88488;-71
2022/04/27 06:11:44;;;;;;;9.48;5.60;;;;;;;;;;5008456;28;88907;-71
2022/04/27 06:14:10;;;;;;;7.93;5.82;;;;;;;;;;5027454;28;89879;-72
2022/04/27 06:16:36;;;;;;;9.60;6.70;;;;;;;;;;5011699;27;87924;-72
2022/04/27 06:19:03;;;;;;;11.68;6.97;;;;;;;;;;5016915;28;87995;-72
2022/04/27 06:21:33;;;;;;;9.35;6.85;;;;;;;;;;5011526;28;89059;-72
2022/04/27 06:24:00;;;;;;;13.57;7.27;;;;;;;;;;5015290;28;88829;-72
2022/04/27 06:26:27;;;;;;;10.73;7.07;;;;;;;;;;5016807;28;90591;-74
2022/04/27 06:28:53;;;;;;;23.48;8.52;;;;;;;;;;5017295;28;89124;-73
2022/04/27 06:31:20;;;;;;;20.30;7.40;;;;;;;;;;5003758;28;88749;-73
2022/04/27 06:33:46;;;;;;;19.45;6.82;;;;;;;;;;5019425;28;89796;-73
2022/04/27 06:36:13;;;;;;;27.10;8.65;;;;;;;;;;5017275;28;88759;-72
2022/04/27 06:38:39;;;;;;;21.02;7.32;;;;;;;;;;5017094;28;88469;-73
2022/04/27 06:41:13;;;;;;;21.50;7.40;;;;;;;;;;5015406;28;88339;-72
2022/04/27 06:43:39;;;;;;;29.10;7.57;;;;;;;;;;4990048;28;88226;-73
2022/04/27 06:46:05;;;;;;;18.00;6.95;;;;;;;;;;5007210;28;88940;-73
2022/04/27 06:48:33;;;;;;;11.23;7.13;;;;;;;;;;5016191;28;90798;-72
2022/04/27 06:50:59;;;;;;;12.93;6.90;;;;;;;;;;5016751;28;89825;-72
2022/04/27 06:53:25;;;;;;;18.90;7.10;;;;;;;;;;5013493;28;88506;-72
2022/04/27 06:55:52;;;;;;;14.43;6.55;;;;;;;;;;5032233;28;90224;-72
2022/04/27 06:58:18;;;;;;;11.82;6.57;;;;;;;;;;5014863;27;89016;-72
2022/04/27 07:00:44;;;;;;;15.02;6.88;;;;;;;;;;5012780;28;89089;-72
2022/04/27 07:03:15;;;;;;;16.77;6.88;;;;;;;;;;5007180;28;88899;-68
2022/04/27 07:05:42;;;;;;;19.75;7.00;;;;;;;;;;5014693;28;89957;-68
2022/04/27 07:08:08;;;;;;;15.00;6.40;;;;;;;;;;4999760;28;88769;-68
2022/04/27 07:10:38;;;;;;;12.25;5.88;;;;;;;;;;5012377;28;88054;-68
2022/04/27 07:13:05;;;;;;;12.75;5.88;;;;;;;;;;5015876;27;89446;-68
2022/04/27 07:15:31;;;;;;;8.07;5.00;;;;;;;;;;5001783;28;90038;-68
2022/04/27 07:17:58;;;;;;;18.83;5.80;;;;;;;;;;5010032;28;88037;-68
2022/04/27 07:20:24;;;;;;;12.60;6.00;;;;;;;;;;5019365;28;89574;-68
2022/04/27 07:22:50;;;;;;;17.75;5.57;;;;;;;;;;5032707;28;88018;-68
2022/04/27 07:25:18;;;;;;;12.75;5.13;;;;;;;;;;5017915;27;89435;-68
2022/04/27 07:27:45;;;;;;;11.15;4.32;;;;;;;;;;5018805;28;89493;-68
2022/04/27 07:30:11;;;;;;;11.18;4.75;;;;;;;;;;5019543;28;90130;-67
2022/04/27 07:32:37;;;;;;;13.65;4.60;;;;;;;;;;5015514;28;88944;-68
2022/04/27 07:35:04;;;;;;;11.32;4.60;;;;;;;;;;5039395;27;87929;-68
2022/04/27 07:37:30;;;;;;;12.32;4.10;;;;;;;;;;5042574;27;88791;-69
2022/04/27 07:39:58;;;;;;;9.13;3.95;;;;;;;;;;5020599;28;90061;-68
2022/04/27 07:42:24;;;;;;;7.45;3.65;;;;;;;;;;5011920;28;88482;-69
2022/04/27 07:44:50;;;;;;;9.43;3.70;;;;;;;;;;5015205;28;88819;-68
2022/04/27 07:47:17;;;;;;;9.52;3.95;;;;;;;;;;5011147;28;89982;-68
2022/04/27 07:49:46;;;;;;;10.43;3.90;;;;;;;;;;5019810;28;88113;-68
2022/04/27 07:52:12;;;;;;;15.80;4.28;;;;;;;;;;5009081;28;89894;-67
2022/04/27 07:54:41;;;;;;;6.85;3.47;;;;;;;;;;5006725;28;88081;-67
2022/04/27 07:57:07;;;;;;;12.95;4.25;;;;;;;;;;5020282;27;88037;-68
2022/04/27 07:59:34;;;;;;;7.63;3.65;;;;;;;;;;5020962;28;89365;-68
2022/04/27 08:02:01;;;;;;;7.63;3.08;;;;;;;;;;5020672;28;90587;-68
2022/04/27 08:04:27;;;;;;;6.50;2.80;;;;;;;;;;5019845;28;89438;-68
2022/04/27 08:06:53;;;;;;;10.60;3.28;;;;;;;;;;5019228;28;88920;-68
2022/04/27 08:09:20;;;;;;;13.07;3.38;;;;;;;;;;5019579;28;88391;-68
2022/04/27 08:11:46;;;;;;;11.25;3.03;;;;;;;;;;5019642;28;88826;-68
2022/04/27 08:14:12;;;;;;;11.05;3.35;;;;;;;;;;5019371;28;89099;-67
2022/04/27 08:16:38;;;;;;;6.72;2.50;;;;;;;;;;5023493;27;88162;-68
2022/04/27 08:19:05;;;;;;;11.27;2.80;;;;;;;;;;5019998;28;88807;-68
2022/04/27 08:21:31;;;;;;;7.38;2.88;;;;;;;;;;5021861;28;88856;-67
2022/04/27 08:23:59;;;;;;;11.15;3.05;;;;;;;;;;5019314;28;88821;-67
2022/04/27 08:26:26;;;;;;;12.00;2.95;;;;;;;;;;5018821;28;90752;-67
2022/04/27 08:28:52;;;;;;;8.60;3.00;;;;;;;;;;5020553;28;88292;-68
2022/04/27 08:31:20;;;;;;;7.10;2.92;;;;;;;;;;5019091;28;88834;-68
2022/04/27 08:33:46;;;;;;;8.75;3.10;;;;;;;;;;5019402;28;89177;-68
2022/04/27 08:36:13;;;;;;;5.63;2.63;;;;;;;;;;5019078;28;88683;-68
2022/04/27 08:38:56;;;;;;;6.15;2.83;;;;;;;;;;5019343;28;89687;-68
2022/04/27 08:41:23;;;;;;;5.25;2.60;;;;;;;;;;5027987;28;89014;-68
2022/04/27 08:43:50;;;;;;;8.32;2.75;;;;;;;;;;5042704;27;88738;-68
2022/04/27 08:46:16;;;;;;;5.28;2.75;;;;;;;;;;5027596;27;88913;-68
2022/04/27 08:48:47;;;;;;;5.28;2.80;;;;;;;;;;5019062;28;88118;-68
2022/04/27 08:51:13;;;;;;;13.18;3.25;;;;;;;;;;5018831;28;89477;-68
2022/04/27 08:53:41;;;;;;;8.85;2.47;;;;;;;;;;5039260;28;89936;-68
2022/04/27 08:56:08;;;;;;;5.60;2.42;;;;;;;;;;5023732;27;88058;-67
2022/04/27 08:58:34;;;;;;;8.48;2.40;;;;;;;;;;5015460;28;88448;-67
2022/04/27 09:01:09;;;;;;;6.40;2.33;;;;;;;;;;5017948;28;89180;-68
2022/04/27 09:03:36;;;;;;;7.90;2.42;;;;;;;;;;5017726;28;88171;-68
2022/04/27 09:06:04;;;;;;;7.20;2.60;;;;;;;;;;5021495;28;88879;-68
2022/04/27 09:08:36;;;;;;;5.03;2.45;;;;;;;;;;5018399;28;87964;-68
2022/04/27 09:11:12;;;;;;;9.65;2.80;;;;;;;;;;5017659;28;88104;-68
2022/04/27 09:13:39;;;;;;;8.38;2.53;;;;;;;;;;5018746;28;90807;-68
2022/04/27 09:16:06;;;;;;;6.60;2.80;;;;;;;;;;5017087;28;89327;-67
2022/04/27 09:21:51;;;;;;;8.00;2.40;;;;;;;;;;5011517;28;90064;-67
2022/04/27 09:24:18;;;;;;;5.45;2.40;;;;;;;;;;5030206;28;88646;-69
2022/04/27 09:26:44;;;;;;;7.60;2.25;;;;;;;;;;5011808;28;89623;-68
2022/04/27 09:29:26;;;;;;;5.57;2.33;;;;;;;;;;5023509;28;88680;-67
2022/04/27 09:31:56;;;;;;;4.57;1.70;;;;;;;;;;4998095;28;89526;-67
2022/04/27 09:34:29;;;;;;;10.80;3.15;;;;;;;;;;5007413;28;88617;-68
2022/04/27 09:36:59;;;;;;;5.65;2.03;;;;;;;;;;5031600;28;87935;-67
2022/04/27 09:39:26;;;;;;;9.80;2.42;;;;;;;;;;5032483;27;88699;-69
2022/04/27 09:41:52;;;;;;;6.30;1.92;;;;;;;;;;5015561;28;90043;-69
2022/04/27 09:44:28;;;;;;;10.05;2.58;;;;;;;;;;5012666;28;88675;-67
2022/04/27 09:46:54;;;;;;;2.30;1.40;;;;;;;;;;5007889;28;88724;-68
2022/04/27 09:49:21;;;;;;;7.75;1.73;;;;;;;;;;5009814;28;89457;-68
2022/04/27 09:51:57;;;;;;;3.60;1.50;;;;;;;;;;5011472;28;91551;-68
2022/04/27 09:54:25;;;;;;;6.68;2.08;;;;;;;;;;5017144;28;88878;-68
2022/04/27 09:56:55;;;;;;;3.47;1.95;;;;;;;;;;5010276;27;89750;-69
2022/04/27 09:59:30;;;;;;;6.10;2.28;;;;;;;;;;4997890;28;88850;-68
2022/04/27 10:02:00;;;;;;;5.03;1.85;;;;;;;;;;4996924;28;88876;-70
2022/04/27 10:04:30;;;;;;;12.20;2.15;;;;;;;;;;5013409;28;90742;-68
2022/04/27 10:06:58;;;;;;;8.90;2.78;;;;;;;;;;5009915;28;89191;-68
2022/04/27 10:09:26;;;;;;;4.72;2.20;;;;;;;;;;5014651;28;90288;-67
2022/04/27 10:12:11;;;;;;;6.78;2.25;;;;;;;;;;5007184;28;88952;-68
2022/04/27 10:14:38;;;;;;;8.00;2.28;;;;;;;;;;5009417;28;89563;-67
2022/04/27 10:17:04;;;;;;;8.93;1.85;;;;;;;;;;5015136;28;88882;-67
2022/04/27 10:19:31;;;;;;;10.95;2.28;;;;;;;;;;5005368;28;89355;-67
2022/04/27 10:21:57;;;;;;;11.68;2.78;;;;;;;;;;5016742;28;90101;-67
2022/04/27 10:24:41;;;;;;;6.15;2.03;;;;;;;;;;5013671;28;87555;-67
2022/04/27 10:27:13;;;;;;;3.78;2.13;;;;;;;;;;4999910;28;88169;-68
2022/04/27 10:29:40;;;;;;;4.03;2.10;;;;;;;;;;5005034;28;90055;-68
2022/04/27 10:32:06;;;;;;;6.78;2.00;;;;;;;;;;5025574;28;89416;-68
2022/04/27 10:34:33;;;;;;;10.45;2.35;;;;;;;;;;5020141;28;90386;-68
2022/04/27 10:37:01;;;;;;;6.80;2.17;;;;;;;;;;5010441;28;88914;-68
2022/04/27 10:39:28;;;;;;;6.45;2.20;;;;;;;;;;4998818;28;88880;-69
2022/04/27 10:42:03;;;;;;;9.02;2.17;;;;;;;;;;5014281;28;88927;-69
2022/04/27 10:44:48;;;;;;;4.13;1.98;;;;;;;;;;5015191;28;88304;-68
2022/04/27 10:47:15;;;;;;;5.68;2.08;;;;;;;;;;5015633;28;88872;-68
2022/04/27 10:49:41;;;;;;;3.22;1.55;;;;;;;;;;5016687;28;89564;-68
2022/04/27 10:52:08;;;;;;;2.47;1.80;;;;;;;;;;5018360;28;87979;-69
2022/04/27 10:54:37;;;;;;;6.05;2.22;;;;;;;;;;5023066;28;88826;-69
2022/04/27 10:57:15;;;;;;;5.60;1.70;;;;;;;;;;5013437;27;89734;-69
2022/04/27 10:59:44;;;;;;;4.93;2.08;;;;;;;;;;5018419;28;89631;-69
2022/04/27 11:02:29;;;;;;;5.55;1.88;;;;;;;;;;5017120;28;88898;-68
2022/04/27 11:04:56;;;;;;;4.82;2.20;;;;;;;;;;5020481;28;88011;-68
2022/04/27 11:07:41;;;;;;;5.55;2.22;;;;;;;;;;5017444;28;89662;-68
2022/04/27 11:10:12;;;;;;;7.00;2.10;;;;;;;;;;5020650;28;89308;-68
2022/04/27 11:12:39;;;;;;;7.05;2.38;;;;;;;;;;5040843;28;89085;-68
2022/04/27 11:15:06;;;;;;;4.30;2.00;;;;;;;;;;5026378;27;88648;-68
2022/04/27 11:17:34;;;;;;;8.18;2.30;;;;;;;;;;5014339;28;89123;-68
2022/04/27 11:20:03;;;;;;;9.07;2.60;;;;;;;;;;5009731;28;88400;-68
2022/04/27 11:22:37;;;;;;;14.23;2.60;;;;;;;;;;5014445;28;90425;-69
2022/04/27 11:25:05;;;;;;;5.80;2.38;;;;;;;;;;5005012;28;90715;-68
2022/04/27 11:27:33;;;;;;;5.80;2.80;;;;;;;;;;5012640;28;88425;-68
2022/04/27 11:30:01;;;;;;;5.57;2.13;;;;;;;;;;5014800;28;88092;-69
2022/04/27 11:32:30;;;;;;;11.00;2.70;;;;;;;;;;5007641;28;88053;-68
2022/04/27 11:34:57;;;;;;;6.32;2.20;;;;;;;;;;5017069;28;89834;-69
2022/04/27 11:37:23;;;;;;;9.93;2.50;;;;;;;;;;5029012;27;89014;-68
2022/04/27 11:39:49;;;;;;;7.53;2.22;;;;;;;;;;5013938;28;88991;-67
2022/04/27 11:42:19;;;;;;;7.40;2.92;;;;;;;;;;5028381;27;88089;-67
2022/04/27 11:44:52;;;;;;;5.22;2.10;;;;;;;;;;5010600;28;88051;-67
2022/04/27 11:47:44;;;;;;;9.27;2.72;;;;;;;;;;5015421;28;88951;-67
2022/04/27 11:50:11;;;;;;;8.13;2.50;;;;;;;;;;5027739;27;89584;-67
2022/04/27 11:52:37;;;;;;;9.88;2.70;;;;;;;;;;5018645;27;88104;-68
2022/04/27 11:55:11;;;;;;;7.75;2.25;;;;;;;;;;5020871;28;88848;-67
2022/04/27 11:57:39;;;;;;;5.03;2.55;;;;;;;;;;5003673;28;89224;-67
2022/04/27 12:00:06;;;;;;;6.55;2.13;;;;;;;;;;5003939;28;87979;-67
2022/04/27 12:02:33;;;;;;;3.60;2.20;;;;;;;;;;5028059;28;88789;-68
2022/04/27 12:05:00;;;;;;;9.30;2.92;;;;;;;;;;5012427;28;88283;-68
2022/04/27 12:07:32;;;;;;;9.57;2.67;;;;;;;;;;5026294;27;87946;-69
2022/04/27 12:09:59;;;;;;;7.90;2.40;;;;;;;;;;5010912;28;89156;-68
2022/04/27 12:12:29;;;;;;;6.43;2.22;;;;;;;;;;5006821;28;90539;-68
2022/04/27 12:14:56;;;;;;;4.90;2.27;;;;;;;;;;5012813;27;89154;-67
2022/04/27 12:17:44;;;;;;;9.50;2.72;;;;;;;;;;5017630;28;89033;-66
2022/04/27 12:20:22;;;;;;;4.93;2.47;;;;;;;;;;5019298;28;89449;-66
2022/04/27 12:22:55;;;;;;;5.63;2.35;;;;;;;;;;5018841;28;88941;-67
2022/04/27 12:25:30;;;;;;;8.48;2.35;;;;;;;;;;5017031;28;88776;-66
2022/04/27 12:27:57;;;;;;;7.70;2.33;;;;;;;;;;5016834;28;88529;-67
2022/04/27 12:30:24;;;;;;;7.05;2.35;;;;;;;;;;5018487;28;88330;-66
2022/04/27 12:32:50;;;;;;;5.07;2.67;;;;;;;;;;4998429;28;88157;-67
2022/04/27 12:38:11;;;;;;;9.88;2.67;;;;;;;;;;5016895;28;89747;-66
2022/04/27 12:40:38;;;;;;;4.28;2.30;;;;;;;;;;5016582;28;88125;-67
2022/04/27 12:43:05;;;;;;;8.57;2.72;;;;;;;;;;5017089;28;88470;-67
2022/04/27 12:45:33;;;;;;;4.97;2.22;;;;;;;;;;5013175;28;90268;-67
2022/04/27 12:48:00;;;;;;;10.20;2.38;;;;;;;;;;5021783;28;88331;-67
2022/04/27 12:50:26;;;;;;;4.80;2.55;;;;;;;;;;5019350;27;89343;-67
2022/04/27 12:53:05;;;;;;;6.32;2.20;;;;;;;;;;5018860;28;88064;-68
2022/04/27 12:55:32;;;;;;;9.43;2.90;;;;;;;;;;5016511;28;88548;-67
2022/04/27 12:58:01;;;;;;;9.90;2.40;;;;;;;;;;5018388;28;89228;-67
2022/04/27 13:00:53;;;;;;;8.85;2.38;;;;;;;;;;5015982;28;87994;-67
2022/04/27 13:03:20;;;;;;;4.72;2.17;;;;;;;;;;5005187;28;89400;-67
2022/04/27 13:05:47;;;;;;;4.72;2.50;;;;;;;;;;5019386;28;90017;-67
2022/04/27 13:08:13;;;;;;;6.13;2.45;;;;;;;;;;5018174;28;88032;-67
2022/04/27 13:13:24;;;;;;;7.53;2.50;;;;;;;;;;5025081;28;88979;-67
2022/04/27 13:15:51;;;;;;;12.18;2.95;;;;;;;;;;5019392;28;88787;-67
2022/04/27 13:18:17;;;;;;;6.88;2.50;;;;;;;;;;5018184;28;89016;-67
2022/04/27 13:20:44;;;;;;;10.02;3.40;;;;;;;;;;5006091;28;88147;-67
2022/04/27 13:23:14;;;;;;;22.77;3.25;;;;;;;;;;5007253;28;88332;-67
2022/04/27 13:25:40;;;;;;;18.00;2.92;;;;;;;;;;5014276;28;89145;-67
2022/04/27 13:28:06;;;;;;;8.50;2.67;;;;;;;;;;5000334;28;88706;-67
2022/04/27 13:30:34;;;;;;;6.43;2.45;;;;;;;;;;5014242;28;90152;-67
2022/04/27 13:33:00;;;;;;;12.45;2.75;;;;;;;;;;5017694;28;89660;-67
2022/04/27 13:35:27;;;;;;;9.55;2.63;;;;;;;;;;5010045;28;88994;-68
2022/04/27 13:37:53;;;;;;;15.40;3.08;;;;;;;;;;5020939;28;88609;-68
2022/04/27 13:40:19;;;;;;;9.85;2.50;;;;;;;;;;5037109;28;88411;-68
2022/04/27 13:42:46;;;;;;;15.63;2.92;;;;;;;;;;5036045;27;88747;-68
2022/04/27 13:45:14;;;;;;;12.82;3.00;;;;;;;;;;5035768;27;88665;-69
2022/04/27 13:47:41;;;;;;;13.38;2.70;;;;;;;;;;5019110;28;88964;-68
2022/04/27 13:50:07;;;;;;;18.33;3.53;;;;;;;;;;5017764;28;88477;-68
2022/04/27 13:52:50;;;;;;;8.68;3.03;;;;;;;;;;5017072;28;89754;-68
2022/04/27 13:55:17;;;;;;;17.80;2.70;;;;;;;;;;5020265;28;88394;-68
2022/04/27 13:57:43;;;;;;;9.43;2.42;;;;;;;;;;5017790;28;89047;-68
2022/04/27 14:00:09;;;;;;;10.90;2.72;;;;;;;;;;5018488;28;87961;-68
2022/04/27 14:02:36;;;;;;;12.57;3.05;;;;;;;;;;5017500;28;88998;-68
2022/04/27 14:05:03;;;;;;;7.72;2.42;;;;;;;;;;5023902;28;89327;-69
2022/04/27 14:07:29;;;;;;;10.30;2.70;;;;;;;;;;5035801;27;88071;-69
2022/04/27 14:09:55;;;;;;;8.88;2.38;;;;;;;;;;5038073;27;88770;-68
2022/04/27 14:15:07;;;;;;;9.57;2.63;;;;;;;;;;5037208;28;90043;-68
2022/04/27 14:20:22;;;;;;;6.93;2.30;;;;;;;;;;5024213;28;87998;-68
2022/04/27 14:22:49;;;;;;;11.82;2.83;;;;;;;;;;5034228;27;89129;-69
2022/04/27 14:25:15;;;;;;;8.05;2.58;;;;;;;;;;5003543;28;88891;-69
2022/04/27 14:27:42;;;;;;;8.93;2.60;;;;;;;;;;5007266;28;88385;-67
2022/04/27 14:30:11;;;;;;;13.75;3.17;;;;;;;;;;5012994;28;89697;-67
2022/04/27 14:32:37;;;;;;;7.95;2.60;;;;;;;;;;5010335;28;90111;-69
2022/04/27 14:35:04;;;;;;;9.27;2.03;;;;;;;;;;5010412;28;88755;-69
2022/04/27 14:37:32;;;;;;;11.73;2.72;;;;;;;;;;4980836;28;87923;-69
2022/04/27 14:39:58;;;;;;;9.45;2.50;;;;;;;;;;4984339;28;89786;-69
2022/04/27 14:42:25;;;;;;;8.85;2.67;;;;;;;;;;5001260;28;89066;-69
2022/04/27 14:44:51;;;;;;;9.73;3.03;;;;;;;;;;4997910;28;89074;-68
2022/04/27 14:47:17;;;;;;;8.82;2.50;;;;;;;;;;4987238;28;88212;-68
2022/04/27 14:49:44;;;;;;;15.20;2.85;;;;;;;;;;4994780;28;88791;-66
2022/04/27 14:52:10;;;;;;;8.30;2.97;;;;;;;;;;4991171;28;89839;-67
2022/04/27 14:54:36;;;;;;;10.80;2.63;;;;;;;;;;4990765;28;87957;-67
2022/04/27 14:57:03;;;;;;;9.82;2.67;;;;;;;;;;4988429;28;89013;-67
2022/04/27 14:59:29;;;;;;;14.27;3.22;;;;;;;;;;5010993;28;88563;-67
2022/04/27 15:01:56;;;;;;;10.80;2.38;;;;;;;;;;4993884;28;89463;-68
2022/04/27 15:04:22;;;;;;;13.40;2.58;;;;;;;;;;4991770;28;89104;-68
2022/04/27 15:06:48;;;;;;;8.85;2.85;;;;;;;;;;4987277;28;89143;-66